Flight Track Log - Related Links

Times and Time Zones

All times are in EDT time to prevent confusion due to time zone crossing. See the BJS444 flight status page for this flight to view local times or setup timezone preferences in your user account.

Time Position Orientation Groundspeed Altitude Reporting Facility
EDT Latitude Longitude Course Direction KTS MPH feet Rate Location/Type
Wed 04:24:38 PM 41.9333 -87.8500 163° South 212 244 3,300  Level Chicago TRACON
Wed 04:26:00 PM 41.8222 -87.7206 139° Southeast  Level Estimated
Wed 04:33:00 PM 41.2509 -87.0649 139° Southeast  Level Estimated
Wed 04:34:00 PM 41.1689 -86.9722 140° Southeast  Level Estimated
Wed 04:35:00 PM 41.0869 -86.8797 140° Southeast  Level Estimated
Wed 04:36:00 PM 41.0049 -86.7874 140° Southeast  Level Estimated
Wed 04:37:00 PM 40.9227 -86.6954 140° Southeast  Level Estimated
Wed 04:38:00 PM 40.8405 -86.6036 140° Southeast  Level Estimated
Wed 04:39:00 PM 40.7582 -86.5120 140° Southeast  Level Estimated
Wed 04:40:00 PM 40.6758 -86.4206 140° Southeast  Level Estimated
Wed 04:41:00 PM 40.5934 -86.3295 140° Southeast  Level Estimated
Wed 04:42:00 PM 40.5109 -86.2386 140° Southeast  Level Estimated
Wed 04:43:00 PM 40.4283 -86.1479 140° Southeast  Level Estimated
Wed 04:44:00 PM 40.3457 -86.0574 140° Southeast  Level Estimated
Wed 04:45:00 PM 40.2630 -85.9672 140° Southeast  Level Estimated
Wed 04:46:00 PM 40.1802 -85.8772 140° Southeast  Level Estimated
Wed 04:47:00 PM 40.0973 -85.7874 140° Southeast  Level Estimated
Wed 04:48:00 PM 40.0144 -85.6978 140° Southeast  Level Estimated
Wed 04:49:00 PM 39.9314 -85.6085 140° Southeast  Level Estimated
Wed 04:50:00 PM 39.8483 -85.5193 141° Southeast  Level Estimated
Wed 04:51:00 PM 39.7652 -85.4304 141° Southeast  Level Estimated
Wed 04:52:00 PM 39.6820 -85.3417 141° Southeast  Level Estimated
Wed 04:53:00 PM 39.5987 -85.2532 141° Southeast  Level Estimated
Wed 04:54:00 PM 39.5154 -85.1649 141° Southeast  Level Estimated
Wed 04:55:00 PM 39.4320 -85.0768 141° Southeast  Level Estimated
Wed 04:56:00 PM 39.3485 -84.9889 141° Southeast  Level Estimated
Wed 04:57:00 PM 39.2650 -84.9013 141° Southeast  Level Estimated
Wed 04:58:00 PM 39.1814 -84.8138 141° Southeast  Level Estimated
Wed 04:59:00 PM 39.0977 -84.7266 141° Southeast  Level Estimated
Wed 05:00:00 PM 39.0140 -84.6395 141° Southeast  Level Estimated
Wed 05:01:00 PM 38.9302 -84.5527 141° Southeast  Level Estimated
Wed 05:02:00 PM 38.8463 -84.4661 141° Southeast  Level Estimated
Wed 05:03:00 PM 38.7624 -84.3796 141° Southeast  Level Estimated
Wed 05:04:00 PM 38.6784 -84.2934 141° Southeast  Level Estimated
Wed 05:05:00 PM 38.5944 -84.2074 141° Southeast  Level Estimated
Wed 05:06:00 PM 38.5103 -84.1216 141° Southeast  Level Estimated
Wed 05:07:00 PM 38.4261 -84.0360 141° Southeast  Level Estimated
Wed 05:08:00 PM 38.3419 -83.9506 141° Southeast  Level Estimated
Wed 05:09:00 PM 38.2576 -83.8654 142° Southeast  Level Estimated
Wed 05:10:00 PM 38.1732 -83.7803 142° Southeast  Level Estimated
Wed 05:11:00 PM 38.0888 -83.6955 142° Southeast  Level Estimated
Wed 05:12:00 PM 38.0043 -83.6109 142° Southeast  Level Estimated
Wed 05:13:00 PM 37.9198 -83.5265 142° Southeast  Level Estimated
Wed 05:14:00 PM 37.8352 -83.4422 142° Southeast  Level Estimated
Wed 05:15:00 PM 37.7505 -83.3582 142° Southeast  Level Estimated
Wed 05:16:00 PM 37.6658 -83.2743 142° Southeast  Level Estimated
Wed 05:17:00 PM 37.5810 -83.1907 142° Southeast  Level Estimated
Wed 05:18:00 PM 37.4962 -83.1072 142° Southeast  Level Estimated
Wed 05:19:00 PM 37.4113 -83.0239 142° Southeast  Level Estimated
Wed 05:20:00 PM 37.3263 -82.9408 142° Southeast  Level Estimated
Wed 05:21:00 PM 37.2413 -82.8579 142° Southeast  Level Estimated
Wed 05:22:00 PM 37.1562 -82.7752 142° Southeast  Level Estimated
Wed 05:23:00 PM 37.0711 -82.6927 142° Southeast  Level Estimated
Wed 05:24:00 PM 36.9859 -82.6103 142° Southeast  Level Estimated
Wed 05:25:00 PM 36.9007 -82.5282 142° Southeast  Level Estimated
Wed 05:26:00 PM 36.8154 -82.4462 142° Southeast  Level Estimated
Wed 05:27:00 PM 36.7300 -82.3644 142° Southeast  Level Estimated
Wed 05:28:00 PM 36.6446 -82.2828 143° Southeast  Level Estimated
Wed 05:29:00 PM 36.5591 -82.2013 143° Southeast  Level Estimated
Wed 05:30:00 PM 36.4736 -82.1201 143° Southeast  Level Estimated
Wed 05:31:00 PM 36.3880 -82.0390 143° Southeast  Level Estimated
Wed 05:32:00 PM 36.3024 -81.9581 143° Southeast  Level Estimated
Wed 05:33:00 PM 36.2167 -81.8774 143° Southeast  Level Estimated
Wed 05:34:00 PM 36.1310 -81.7969 143° Southeast  Level Estimated
Wed 05:35:00 PM 36.0452 -81.7165 143° Southeast  Level Estimated
Wed 05:36:00 PM 35.9593 -81.6363 143° Southeast  Level Estimated
Wed 05:37:00 PM 35.8734 -81.5563 143° Southeast  Level Estimated
Wed 05:38:00 PM 35.7875 -81.4764 143° Southeast  Level Estimated
Wed 05:39:00 PM 35.7015 -81.3968 143° Southeast  Level Estimated
Wed 05:40:00 PM 35.6154 -81.3173 143° Southeast  Level Estimated
Wed 05:41:00 PM 35.5293 -81.2379 143° Southeast  Level Estimated
Wed 05:41:39 PM 41.7667 -87.7833 49° Northeast 152 175 2,100  Level Chicago TRACON
Wed 05:42:00 PM 35.4431 -81.1588 143° Southeast  Level Estimated
Wed 05:43:00 PM 35.3569 -81.0798 143° Southeast  Level Estimated
Wed 05:43:52 PM 41.6586 -87.7656 173° South 248 285 8,300  Level Chicago Center
Wed 05:44:00 PM 35.2707 -81.0010 143° Southeast  Level Estimated
Wed 05:44:54 PM 41.5939 -87.7119 148° Southeast 271 312 11,900  Level Chicago Center
Wed 05:45:00 PM 35.2137 -80.9491 143° Southeast  Level Estimated
Wed 05:45:56 PM 41.5150 -87.6458 148° Southeast 334 384 15,200  Level Chicago Center
Wed 05:46:00 PM 35.2137 -80.9491 49° Northeast  Level Estimated
Wed 05:46:58 PM 41.4050 -87.5686 152° Southeast 378 435 19,900  Level Chicago Center
Wed 05:48:00 PM 41.2969 -87.5500 173° South 388 447 22,400 2,736 Climbing Chicago Center
Wed 05:49:03 PM 41.1803 -87.5297 173° South 415 478 25,600 3,024 Climbing Chicago Center
Wed 05:50:05 PM 41.0672 -87.4972 168° South 417 480 28,700 2,129 Climbing Chicago Center
Wed 05:51:07 PM 40.9528 -87.4661 168° South 419 482 30,000 1,887 Climbing Chicago Center
Wed 05:52:09 PM 40.8308 -87.4353 169° South 441 507 32,600 1,935 Climbing Chicago Center
Wed 05:53:11 PM 40.6864 -87.3967 169° South 443 510 34,000 1,161 Climbing Chicago Center
Wed 05:54:13 PM 40.5636 -87.3647 169° South 452 520 35,000 1,500 Climbing Chicago Center
Wed 05:55:15 PM 40.4439 -87.3325 168° South 444 511 37,100 1,935 Climbing Chicago Center
Wed 05:56:17 PM 40.3319 -87.2769 159° South 431 496 39,000 1,728 Climbing Chicago Center
Wed 05:57:20 PM 40.2253 -87.2289 161° South 405 466 40,700 960 Climbing Chicago Center
Wed 05:58:22 PM 40.1011 -87.1672 159° South 408 470 41,000 161 Climbing Chicago Center
Wed 05:59:12 PM 40.0047 -87.1239 161° South 423 487 41,000  Level Indianapolis Center
Wed 06:00:14 PM 39.9000 -87.0444 150° Southeast 436 502 41,000  Level Indianapolis Center
Wed 06:01:16 PM 39.8253 -86.9133 127° Southeast 447 514 41,000  Level Indianapolis Center
Wed 06:02:18 PM 39.7522 -86.7808 126° Southeast 448 516 41,000  Level Indianapolis Center
Wed 06:03:20 PM 39.6783 -86.6483 126° Southeast 451 519 41,000  Level Indianapolis Center
Wed 06:04:22 PM 39.5928 -86.4947 126° Southeast 453 521 41,000  Level Indianapolis Center
Wed 06:05:24 PM 39.5181 -86.3647 127° Southeast 454 522 41,000  Level Indianapolis Center
Wed 06:06:26 PM 39.4453 -86.2344 126° Southeast 450 518 41,000  Level Indianapolis Center
Wed 06:07:28 PM 39.3719 -86.1050 126° Southeast 448 516 41,000  Level Indianapolis Center
Wed 06:08:30 PM 39.2953 -85.9703 126° Southeast 459 528 41,000  Level Indianapolis Center
Wed 06:09:33 PM 39.2069 -85.8156 126° Southeast 458 527 41,000  Level Indianapolis Center
Wed 06:10:35 PM 39.1303 -85.6822 127° Southeast 460 529 41,000  Level Indianapolis Center
Wed 06:11:37 PM 39.0539 -85.5500 127° Southeast 458 527 41,000  Level Indianapolis Center
Wed 06:12:39 PM 38.9764 -85.4178 127° Southeast 460 529 41,000  Level Indianapolis Center
Wed 06:13:41 PM 38.8986 -85.2839 127° Southeast 464 534 41,000  Level Indianapolis Center
Wed 06:14:43 PM 38.8211 -85.1514 127° Southeast 462 532 41,000  Level Indianapolis Center
Wed 06:15:45 PM 38.7436 -85.0183 127° Southeast 463 533 41,000  Level Indianapolis Center
Wed 06:16:47 PM 38.6519 -84.8636 127° Southeast 465 535 41,000  Level Indianapolis Center
Wed 06:17:49 PM 38.5767 -84.7347 127° Southeast 463 533 41,000 -290 Level Indianapolis Center
Wed 06:18:51 PM 38.4981 -84.6031 127° Southeast 465 535 40,400 -484 Descending Indianapolis Center
Wed 06:19:53 PM 38.4219 -84.4767 128° Southeast 450 518 40,000 -194 Descending Indianapolis Center
Wed 06:20:55 PM 38.3325 -84.3286 128° Southeast 451 519 40,000  Level Indianapolis Center
Wed 06:21:57 PM 38.2553 -84.2000 127° Southeast 455 524 40,000 -387 Level Indianapolis Center
Wed 06:22:59 PM 38.1789 -84.0706 127° Southeast 455 524 39,200 -1,210 Descending Indianapolis Center
Wed 06:24:01 PM 38.0919 -83.9575 134° Southeast 450 518 37,500 -1,694 Descending Indianapolis Center
Wed 06:25:03 PM 37.9961 -83.8519 139° Southeast 455 524 35,700 -1,210 Descending Indianapolis Center
Wed 06:26:05 PM 37.9003 -83.7433 138° Southeast 461 531 35,000 -339 Descending Indianapolis Center
Wed 06:27:07 PM 37.7897 -83.6161 138° Southeast 461 531 35,000  Level Indianapolis Center
Wed 06:28:09 PM 37.6922 -83.5081 139° Southeast 463 533 35,000 -48 Level Indianapolis Center
Wed 06:29:12 PM 37.5950 -83.3994 138° Southeast 466 536 34,900 -576 Descending Indianapolis Center
Wed 06:30:14 PM 37.4981 -83.2903 138° Southeast 466 536 33,800 -1,258 Descending Indianapolis Center
Wed 06:31:16 PM 37.3992 -83.1803 139° Southeast 472 543 32,300 -1,597 Descending Indianapolis Center
Wed 06:32:18 PM 37.2842 -83.0528 139° Southeast 471 542 30,500 -1,452 Descending Indianapolis Center
Wed 06:33:20 PM 37.1836 -82.9414 139° Southeast 477 549 29,300 -763 Descending Indianapolis Center
Wed 06:34:16 PM 37.1014 -82.8494 138° Southeast 476 548 29,000 -155 Descending Atlanta Center
Wed 06:35:16 PM 36.9981 -82.7342 138° Southeast 482 555 29,000  Level Atlanta Center
Wed 06:36:16 PM 36.8861 -82.6139 139° Southeast 492 566 29,000  Level Atlanta Center
Wed 06:37:16 PM 36.7828 -82.5044 140° Southeast 487 560 29,000 -550 Level Atlanta Center
Wed 06:38:16 PM 36.6833 -82.3975 139° Southeast 487 560 27,900 -1,300 Descending Atlanta Center
Wed 06:39:16 PM 36.5861 -82.2936 139° Southeast 471 542 26,400 -1,500 Descending Atlanta Center
Wed 06:40:16 PM 36.4806 -82.2211 151° Southeast 447 514 24,900 -1,200 Descending Atlanta Center
Wed 06:41:16 PM 36.3775 -82.1461 150° Southeast 437 503 24,000 -450 Descending Atlanta Center
Wed 06:42:16 PM 36.2739 -82.0711 150° Southeast 431 496 24,000  Level Atlanta Center
Wed 06:43:16 PM 36.1769 -81.9964 148° Southeast 415 478 24,000 -500 Level Atlanta Center
Wed 06:44:16 PM 36.0756 -81.9244 150° Southeast 415 478 23,000 -2,000 Descending Atlanta Center
Wed 06:45:16 PM 35.9783 -81.8550 150° Southeast 411 473 20,000 -2,600 Descending Atlanta Center
Wed 06:46:16 PM 35.8739 -81.8478 177° South 366 421 17,800 -2,400 Descending Atlanta Center
Wed 06:47:16 PM 35.7717 -81.8428 178° South 371 427 15,200 -2,426 Descending Atlanta Center
Wed 06:47:50 PM 35.7292 -81.8056 145° Southeast 341 392 14,000 -2,000 Descending Atlanta Center
Wed 06:48:16 PM 35.7119 -81.7778 127° Southeast 328 377 13,200 -1,745 Descending Atlanta Center
Wed 06:48:45 PM 35.6797 -81.7200 124° Southeast 331 381 12,400 -1,200 Descending Atlanta Center
Wed 06:49:16 PM 35.6603 -81.6822 122° Southeast 314 361 12,000 -358 Descending Atlanta Center
Wed 06:49:52 PM 35.6278 -81.6269 126° Southeast 308 354 12,000  Level Atlanta Center
Wed 06:50:16 PM 35.6125 -81.5967 122° Southeast 309 356 12,000  Level Atlanta Center
Wed 06:50:59 PM 35.5697 -81.5342 130° Southeast 298 343 12,000  Level Atlanta Center
Wed 06:51:16 PM 35.5608 -81.5164 122° Southeast 303 349 12,000  Level Atlanta Center
Wed 06:52:00 PM 35.5178 -81.4514 129° Southeast 300 345 12,000  Level Atlanta Center
Wed 06:52:16 PM 35.5072 -81.4392 137° Southeast 303 349 12,000  Level Atlanta Center
Wed 06:52:49 PM 35.4725 -81.3817 127° Southeast 300 345 12,000  Level Atlanta Center
Wed 06:53:16 PM 35.4553 -81.3567 130° Southeast 298 343 12,000 -393 Level Atlanta Center
Wed 06:53:50 PM 35.4208 -81.3067 130° Southeast 299 344 11,600 -700 Descending Atlanta Center
Wed 06:54:16 PM 35.4036 -81.2794 128° Southeast 298 343 11,300 -986 Descending Atlanta Center
Wed 06:55:03 PM 35.3664 -81.2067 122° Southeast 286 329 10,400 -765 Descending Atlanta Center
Wed 06:55:58 PM 35.3394 -81.1236 112° Southeast 277 319 10,000 -329 Descending Atlanta Center
Wed 06:56:16 PM 35.3328 -81.1086 119° Southeast 279 321 10,000  Level Atlanta Center
Wed 06:56:59 PM 35.3039 -81.0358 116° Southeast 282 325 10,000  Level Atlanta Center
Wed 06:57:16 PM 35.2992 -81.0181 108° East 279 321 10,000 -806 Level Atlanta Center
Wed 06:58:06 PM 35.2722 -80.9403 113° Southeast 278 320 9,100 -566 Descending Atlanta Center
Wed 06:59:02 PM 35.2186 -80.8811 138° Southeast 274 315 9,000 -724 Descending Atlanta Center
Wed 07:00:02 PM 35.1569 -80.8378 150° Southeast 264 304 7,700 -1,672 Descending Atlanta Center
Wed 07:01:04 PM 35.0919 -80.8278 173° South 220 253 5,600 -1,756 Descending Atlanta Center
Wed 07:02:05 PM 35.0250 -80.8203 175° South 220 253 4,100 -787 Descending Atlanta Center
Wed 07:03:06 PM 34.9769 -80.8119 172° South 177 204 4,000 -49 Descending Atlanta Center
Wed 07:04:07 PM 34.9247 -80.8089 177° South 180 207 4,000  Level Atlanta Center
Wed 07:05:08 PM 34.8747 -80.8158 187° South 195 224 4,000  Level Atlanta Center
Wed 07:06:09 PM 34.8556 -80.8797 250° West 209 241 4,000  Level Atlanta Center
Wed 07:07:10 PM 34.8939 -80.9139 324° Northwest 176 203 4,000  Level Atlanta Center
Wed 07:08:11 PM 34.9419 -80.9144 359° North 169 194 4,000  Level Atlanta Center
Wed 07:09:06 PM 34.9881 -80.9178 357° North 172 198 4,000  Level Atlanta Center
Wed 07:10:13 PM 35.0383 -80.9236 355° North 171 197 4,000 -493 Level Atlanta Center
Wed 07:11:20 PM 35.0906 -80.9267 357° North 161 185 2,900 -885 Descending Atlanta Center
Wed 07:12:15 PM 35.1303 -80.9303 356° North 154 177 2,200 -724 Descending Atlanta Center
Wed 07:13:16 PM 35.1678 -80.9339 355° North 133 153 1,500 -689 Descending Atlanta Center
Wed 07:15:00 PM 35.2000 -80.9333 39° Northeast  Level FlightAware Approximate

Login

Don't have an account? Register now (free) for customized features, flight alerts, and more!